createdAt,value
2022-10-17T00:01:11.821Z,15.31
2022-10-17T00:06:14.915Z,14.92
2022-10-17T00:11:19.475Z,14.75
2022-10-17T00:16:24.869Z,14.54
2022-10-17T00:21:26.720Z,14.61
2022-10-17T00:26:28.226Z,14.50
2022-10-17T00:31:29.673Z,14.43
2022-10-17T00:36:31.116Z,14.23
2022-10-17T00:41:33.569Z,14.21
2022-10-17T00:46:39.104Z,14.26
2022-10-17T00:51:49.408Z,14.27
2022-10-17T00:56:51.660Z,14.29
2022-10-17T01:02:10.826Z,14.21
2022-10-17T01:07:12.587Z,14.27
2022-10-17T01:12:20.299Z,14.23
2022-10-17T01:17:37.071Z,14.17
2022-10-17T01:22:59.068Z,14.14
2022-10-17T01:28:14.370Z,14.03
2022-10-17T01:33:35.150Z,13.82
2022-10-17T01:38:49.038Z,13.75
2022-10-17T01:43:58.485Z,13.48
2022-10-17T01:49:03.166Z,13.55
2022-10-17T01:54:07.992Z,13.50
2022-10-17T01:59:14.991Z,13.43
2022-10-17T02:04:16.516Z,13.30
2022-10-17T02:09:26.460Z,13.35
2022-10-17T02:15:05.989Z,13.35
2022-10-17T02:20:23.831Z,13.32
2022-10-17T02:25:40.323Z,13.42
2022-10-17T02:30:47.145Z,13.42
2022-10-17T02:35:53.504Z,13.43
2022-10-17T02:40:56.076Z,13.55
2022-10-17T02:45:57.921Z,13.61
2022-10-17T02:51:05.427Z,13.75
2022-10-17T02:56:15.496Z,13.68
2022-10-17T03:01:18.351Z,13.44
2022-10-17T03:06:20.361Z,13.38
2022-10-17T03:11:21.752Z,13.24
2022-10-17T03:16:25.298Z,13.06
2022-10-17T03:21:26.836Z,12.91
2022-10-17T03:26:28.555Z,12.95
2022-10-17T03:31:31.320Z,12.86
2022-10-17T03:36:34.330Z,12.84
2022-10-17T03:41:36.501Z,12.79
2022-10-17T03:46:38.584Z,12.83
2022-10-17T03:51:40.975Z,12.81
2022-10-17T03:56:47.184Z,12.81
2022-10-17T04:01:52.198Z,12.78
2022-10-17T04:06:53.786Z,12.59
2022-10-17T04:11:55.687Z,12.65
2022-10-17T04:16:58.624Z,12.70
2022-10-17T04:22:01.269Z,12.60
2022-10-17T04:27:07.351Z,12.51
2022-10-17T04:32:12.483Z,12.44
2022-10-17T04:37:29.345Z,12.50
2022-10-17T04:42:32.093Z,12.47
2022-10-17T04:47:34.110Z,12.39
2022-10-17T04:52:35.851Z,12.43
2022-10-17T04:57:37.301Z,12.43
2022-10-17T05:02:46.905Z,12.41
2022-10-17T05:07:49.206Z,12.51
2022-10-17T05:12:55.727Z,12.32
2022-10-17T05:18:00.903Z,12.46
2022-10-17T05:23:03.982Z,12.50
2022-10-17T05:28:10.520Z,12.50
2022-10-17T05:33:14.108Z,12.51
2022-10-17T05:38:15.571Z,12.54
2022-10-17T05:43:19.159Z,12.45
2022-10-17T05:48:23.511Z,12.45
2022-10-17T05:53:25.631Z,12.41
2022-10-17T06:04:04.670Z,12.33
2022-10-17T06:09:07.081Z,12.34
2022-10-17T06:14:12.266Z,12.33
2022-10-17T06:19:15.634Z,11.87
2022-10-17T06:24:17.120Z,12.31
2022-10-17T06:29:19.014Z,12.36
2022-10-17T06:34:26.179Z,12.40
2022-10-17T06:39:27.665Z,12.53
2022-10-17T06:44:35.577Z,12.61
2022-10-17T06:49:55.511Z,12.65
2022-10-17T06:55:06.154Z,12.88
2022-10-17T07:00:16.479Z,12.99
2022-10-17T07:05:23.607Z,13.24
2022-10-17T07:10:26.408Z,13.53
2022-10-17T07:15:27.823Z,13.86
2022-10-17T07:20:30.718Z,13.91
2022-10-17T07:25:35.217Z,14.25
2022-10-17T07:30:42.690Z,14.46
2022-10-17T07:35:46.754Z,14.74
2022-10-17T07:41:03.587Z,14.96
2022-10-17T07:46:05.608Z,15.20
2022-10-17T07:51:10.112Z,15.40
2022-10-17T07:56:12.787Z,15.56
2022-10-17T08:01:15.381Z,15.81
2022-10-17T08:06:18.004Z,16.07
2022-10-17T08:11:19.428Z,16.43
2022-10-17T08:16:20.829Z,16.80
2022-10-17T08:21:22.217Z,16.65
2022-10-17T08:26:23.738Z,17.16
2022-10-17T08:31:25.243Z,17.42
2022-10-17T08:36:26.630Z,17.68
2022-10-17T08:41:34.029Z,17.85
2022-10-17T08:46:39.391Z,17.92
2022-10-17T08:51:49.657Z,18.10
2022-10-17T08:56:55.093Z,18.32
2022-10-17T09:02:21.010Z,18.58
2022-10-17T09:07:32.416Z,18.94
2022-10-17T09:12:47.157Z,19.23
2022-10-17T09:18:21.114Z,19.34
2022-10-17T09:23:40.338Z,19.62
2022-10-17T09:28:46.291Z,19.92
2022-10-17T09:33:54.284Z,20.23
2022-10-17T09:39:04.853Z,20.69
2022-10-17T09:44:30.845Z,20.89
2022-10-17T09:49:34.909Z,20.93
2022-10-17T09:54:45.379Z,21.05
2022-10-17T10:00:04.130Z,21.59
2022-10-17T10:05:19.399Z,22.52
2022-10-17T10:10:27.795Z,22.80
2022-10-17T10:15:33.027Z,23.58
2022-10-17T10:20:36.917Z,24.75
2022-10-17T10:25:38.825Z,25.11
2022-10-17T10:30:40.406Z,25.39
2022-10-17T10:35:41.868Z,25.45
2022-10-17T10:40:50.139Z,25.48
2022-10-17T10:45:52.307Z,25.64
2022-10-17T10:51:02.525Z,26.19
2022-10-17T10:56:20.613Z,27.81
2022-10-17T11:01:40.314Z,29.28
2022-10-17T11:06:44.384Z,30.89
2022-10-17T11:11:52.448Z,32.07
2022-10-17T11:17:05.986Z,32.99
2022-10-17T11:22:26.632Z,33.68
2022-10-17T11:27:30.967Z,34.23
2022-10-17T11:32:43.177Z,34.98
2022-10-17T11:37:49.881Z,34.09
2022-10-17T11:42:58.413Z,33.69
2022-10-17T11:48:10.614Z,34.86
2022-10-17T11:53:21.876Z,35.65
2022-10-17T11:58:53.015Z,36.34
2022-10-17T12:04:25.577Z,36.96
2022-10-17T12:09:38.892Z,36.91
2022-10-17T12:14:45.511Z,37.57
2022-10-17T12:19:46.952Z,37.83
2022-10-17T12:25:02.378Z,37.87
2022-10-17T12:30:25.649Z,38.17
2022-10-17T12:35:28.596Z,38.09
2022-10-17T12:40:36.097Z,37.76
2022-10-17T12:45:57.200Z,37.63
2022-10-17T12:51:30.774Z,37.58
2022-10-17T12:56:44.264Z,37.75
2022-10-17T13:01:48.461Z,37.58
2022-10-17T13:06:54.069Z,35.61
2022-10-17T13:11:58.335Z,33.56
2022-10-17T13:17:07.378Z,32.48
2022-10-17T13:22:15.503Z,31.77
2022-10-17T13:27:31.938Z,31.32
2022-10-17T13:32:39.072Z,31.06
2022-10-17T13:37:43.599Z,31.01
2022-10-17T13:42:45.888Z,30.80
2022-10-17T13:47:47.536Z,30.64
2022-10-17T13:52:48.938Z,30.37
2022-10-17T13:57:50.370Z,30.06
2022-10-17T14:02:51.822Z,29.76
2022-10-17T14:08:16.691Z,29.52
2022-10-17T14:13:30.754Z,29.18
2022-10-17T14:18:37.165Z,29.10
2022-10-17T14:23:42.331Z,28.99
2022-10-17T14:28:47.117Z,28.82
2022-10-17T14:33:51.002Z,28.59
2022-10-17T14:38:52.858Z,28.17
2022-10-17T14:43:57.173Z,27.61
2022-10-17T14:49:07.155Z,27.05
2022-10-17T14:54:24.634Z,26.65
2022-10-17T14:59:52.082Z,26.47
2022-10-17T15:04:47.463Z,26.15
2022-10-17T15:09:50.329Z,25.94
2022-10-17T15:14:52.856Z,25.79
2022-10-17T15:19:55.009Z,25.55
2022-10-17T15:24:56.394Z,25.42
2022-10-17T15:29:58.283Z,26.10
2022-10-17T15:34:59.671Z,26.61
2022-10-17T15:40:01.093Z,25.65
2022-10-17T15:45:02.629Z,24.92
2022-10-17T15:50:06.598Z,24.34
2022-10-17T15:55:09.201Z,23.75
2022-10-17T16:00:19.780Z,23.33
2022-10-17T16:05:24.342Z,22.82
2022-10-17T16:10:26.047Z,22.45
2022-10-17T16:15:28.206Z,22.20
2022-10-17T16:20:29.647Z,21.96
2022-10-17T16:25:32.084Z,21.69
2022-10-17T16:30:40.100Z,21.23
2022-10-17T16:35:41.610Z,20.92
2022-10-17T16:40:43.127Z,20.62
2022-10-17T16:45:44.564Z,20.29
2022-10-17T16:50:45.961Z,19.92
2022-10-17T16:55:59.086Z,19.65
2022-10-17T17:01:01.640Z,19.50
2022-10-17T17:06:04.160Z,19.21
2022-10-17T17:11:10.445Z,19.05
2022-10-17T17:16:18.136Z,18.96
2022-10-17T17:21:19.622Z,18.88
2022-10-17T17:26:22.485Z,18.65
2022-10-17T17:31:30.243Z,18.61
2022-10-17T17:36:34.540Z,18.51
2022-10-17T17:41:36.346Z,18.53
2022-10-17T17:46:37.851Z,18.38
2022-10-17T17:51:39.603Z,18.29
2022-10-17T17:56:41.079Z,18.21
2022-10-17T18:01:42.950Z,18.05
2022-10-17T18:06:44.459Z,18.08
2022-10-17T18:11:45.854Z,18.07
2022-10-17T18:16:47.329Z,18.01
2022-10-17T18:21:48.746Z,17.86
2022-10-17T18:26:50.112Z,17.81
2022-10-17T18:31:51.551Z,17.64
2022-10-17T18:36:55.971Z,17.52
2022-10-17T18:41:57.588Z,17.33
2022-10-17T18:47:02.914Z,17.31
2022-10-17T18:52:05.767Z,17.37
2022-10-17T18:57:07.183Z,17.46
2022-10-17T19:02:10.999Z,17.46
2022-10-17T19:07:12.394Z,17.41
2022-10-17T19:12:13.794Z,17.34
2022-10-17T19:17:15.218Z,17.24
2022-10-17T19:22:16.605Z,17.03
2022-10-17T19:27:18.033Z,16.92
2022-10-17T19:32:22.199Z,16.98
2022-10-17T19:37:24.624Z,17.08
2022-10-17T19:42:26.010Z,17.06
2022-10-17T19:47:27.417Z,17.07
2022-10-17T19:52:29.108Z,16.94
2022-10-17T19:57:30.767Z,16.91
2022-10-17T20:02:32.529Z,16.99
2022-10-17T20:07:34.191Z,17.00
2022-10-17T20:12:35.598Z,16.98
2022-10-17T20:17:37.002Z,16.86
2022-10-17T20:22:38.453Z,16.80
2022-10-17T20:27:39.880Z,16.85
2022-10-17T20:32:41.245Z,16.60
2022-10-17T20:37:42.876Z,16.25
2022-10-17T20:42:44.422Z,16.12
2022-10-17T20:47:52.342Z,15.98
2022-10-17T20:53:10.943Z,15.94
2022-10-17T20:58:15.329Z,15.90
2022-10-17T21:03:16.808Z,15.93
2022-10-17T21:08:18.283Z,15.95
2022-10-17T21:13:21.934Z,16.03
2022-10-17T21:18:23.321Z,16.16
2022-10-17T21:23:24.710Z,16.25
2022-10-17T21:28:26.254Z,16.25
2022-10-17T21:33:28.633Z,16.23
2022-10-17T21:38:30.189Z,16.24
2022-10-17T21:43:32.963Z,16.13
2022-10-17T21:48:34.974Z,16.00
2022-10-17T21:53:37.394Z,15.92
2022-10-17T21:58:39.339Z,15.99
2022-10-17T22:03:45.893Z,16.08
2022-10-17T22:08:48.978Z,16.13
2022-10-17T22:14:03.096Z,16.15
2022-10-17T22:19:06.712Z,16.09
2022-10-17T22:24:11.575Z,15.95
2022-10-17T22:29:13.765Z,15.87
2022-10-17T22:34:16.576Z,15.79
2022-10-17T22:39:18.094Z,15.78
2022-10-17T22:44:19.479Z,15.77
2022-10-17T22:49:20.865Z,15.69
2022-10-17T22:54:22.265Z,15.64
2022-10-17T22:59:23.718Z,15.58
2022-10-17T23:04:25.148Z,15.52
2022-10-17T23:14:28.926Z,15.40
2022-10-17T23:19:30.576Z,15.28
2022-10-17T23:24:32.525Z,15.19
2022-10-17T23:29:34.507Z,15.01
2022-10-17T23:34:35.919Z,14.77
2022-10-17T23:39:37.317Z,14.67
2022-10-17T23:44:38.723Z,14.66
2022-10-17T23:49:40.135Z,14.59
2022-10-17T23:59:47.814Z,14.64
